Time;durP1;ratioP1;P1;durP2;ratioP2;P2;SDS_P1;SDS_P2;PMS_P1;PMS_P2;Temp;Humidity;BMP_temperature;BMP_pressure;BME280_temperature;BME280_humidity;BME280_pressure;Samples;Min_cycle;Max_cycle;Signal;HPM_P1;HPM_P2
2022/06/02 00:01:52;;;;;;;11.93;6.42;;;;;;;21.72;80.43;153115.63;1721132;83;21111;-58
2022/06/02 00:04:39;;;;;;;16.15;7.10;;;;;;;21.68;80.57;153105.19;1722684;83;21023;-59
2022/06/02 00:07:36;;;;;;;12.80;6.67;;;;;;;21.66;80.79;153099.95;1722941;83;21245;-59
2022/06/02 00:10:22;;;;;;;14.73;6.35;;;;;;;21.68;80.72;153103.91;1694482;83;21096;-58
2022/06/02 00:13:02;;;;;;;12.10;6.30;;;;;;;21.65;80.73;153097.34;1721550;82;21445;-59
2022/06/02 00:15:45;;;;;;;18.02;6.53;;;;;;;21.64;80.87;153093.34;1689971;83;21073;-60
2022/06/02 00:18:23;;;;;;;13.70;6.37;;;;;;;21.63;80.90;153092.06;1722089;83;21024;-60
2022/06/02 00:21:17;;;;;;;17.15;7.30;;;;;;;21.63;80.95;153092.06;1690021;84;21825;-61
2022/06/02 00:24:11;;;;;;;20.05;6.92;;;;;;;21.60;81.02;153084.23;1689761;84;21653;-59
2022/06/02 00:26:51;;;;;;;16.15;6.47;;;;;;;21.58;81.20;153079.00;1689988;84;21087;-59
2022/06/02 00:29:36;;;;;;;17.70;6.95;;;;;;;21.53;81.33;153065.91;1690232;84;20988;-59
2022/06/02 00:32:26;;;;;;;15.85;6.30;;;;;;;21.49;81.54;153055.45;1722201;83;21666;-59
2022/06/02 00:35:28;;;;;;;15.32;6.65;;;;;;;21.47;81.61;153052.83;1689584;84;21921;-58
2022/06/02 00:38:07;;;;;;;16.25;7.00;;;;;;;21.42;81.83;153039.78;1689666;83;21064;-57
2022/06/02 00:40:35;;;;;;;15.43;6.67;;;;;;;21.35;82.19;153020.16;1689666;84;21499;-58
2022/06/02 00:43:32;;;;;;;13.18;6.67;;;;;;;21.30;82.49;153008.38;1721863;83;21063;-57
2022/06/02 00:46:39;;;;;;;13.72;6.53;;;;;;;21.26;82.67;152997.94;1689787;84;21015;-58
2022/06/02 00:49:28;;;;;;;14.53;6.67;;;;;;;21.19;83.03;152980.94;1689964;84;21135;-59
2022/06/02 00:52:34;;;;;;;15.30;6.45;;;;;;;21.16;83.34;152973.09;1689565;83;21049;-59
2022/06/02 00:58:25;;;;;;;11.63;6.25;;;;;;;21.02;83.98;152937.81;1689753;84;21068;-60
2022/06/02 01:00:58;;;;;;;13.50;7.10;;;;;;;20.95;84.26;152920.81;1722315;83;21049;-59
2022/06/02 01:03:27;;;;;;;14.60;7.25;;;;;;;20.86;84.61;152898.59;1689852;84;21343;-60
2022/06/02 01:06:25;;;;;;;15.85;6.60;;;;;;;20.82;85.08;152886.88;1676894;83;21457;-59
2022/06/02 01:09:37;;;;;;;15.00;6.95;;;;;;;20.79;85.51;152879.00;1733783;81;21480;-60
2022/06/02 01:12:39;;;;;;;15.83;8.00;;;;;;;20.75;86.09;152869.83;1759461;81;20996;-59
2022/06/02 01:15:34;;;;;;;17.90;7.05;;;;;;;20.72;86.79;152862.00;1766659;81;21051;-59
2022/06/02 01:18:17;;;;;;;;;;;;;;;20.73;87.33;152864.61;1770701;81;21839;-59
2022/06/02 01:20:53;;;;;;;16.27;7.80;;;;;;;20.73;87.58;152864.61;1768039;81;20392;-59
2022/06/02 01:23:41;;;;;;;;;;;;;;;20.71;87.96;152860.66;1770774;81;21073;-59
2022/06/02 01:26:36;;;;;;;21.97;6.75;;;;;;;20.73;88.17;152865.89;1767982;81;20402;-59
2022/06/02 01:29:27;;;;;;;12.55;7.20;;;;;;;20.75;88.34;152869.83;1768024;81;21059;-59
2022/06/02 01:32:09;;;;;;;18.10;7.37;;;;;;;20.80;88.38;152882.94;1767925;81;21681;-59
2022/06/02 01:34:43;;;;;;;15.08;6.45;;;;;;;20.83;88.32;152889.48;1767806;81;21055;-59
2022/06/02 01:37:16;;;;;;;16.62;6.92;;;;;;;20.82;88.41;152886.88;1767965;81;21468;-59
2022/06/02 01:40:03;;;;;;;23.67;7.37;;;;;;;20.83;88.47;152890.77;1731530;81;21110;-59
2022/06/02 01:42:47;;;;;;;21.85;7.03;;;;;;;20.85;88.44;152895.98;1730770;82;21051;-59
2022/06/02 01:45:45;;;;;;;17.42;7.60;;;;;;;20.84;88.29;152893.38;1731756;82;21247;-59
2022/06/02 01:48:35;;;;;;;16.82;7.78;;;;;;;20.81;88.44;152885.55;1731699;82;21004;-59
2022/06/02 01:51:27;;;;;;;19.77;7.30;;;;;;;20.77;88.50;152875.05;1731494;82;21513;-59
2022/06/02 01:54:05;;;;;;;16.55;7.75;;;;;;;20.68;88.54;152851.55;1731412;82;21464;-59
2022/06/02 01:57:14;;;;;;;16.07;7.40;;;;;;;20.60;88.94;152833.22;1731710;82;21480;-59
2022/06/02 02:00:10;;;;;;;22.48;8.30;;;;;;;20.56;89.18;152822.78;1721512;82;21245;-59
2022/06/02 02:03:17;;;;;;;15.08;7.15;;;;;;;20.49;89.71;152803.19;1720667;82;21417;-59
2022/06/02 02:06:01;;;;;;;21.10;8.28;;;;;;;20.47;90.13;152799.28;1731562;82;21494;-59
2022/06/02 02:08:53;;;;;;;15.08;7.33;;;;;;;20.50;90.42;152807.13;1725910;82;21047;-59
2022/06/02 02:11:45;;;;;;;15.80;6.92;;;;;;;20.51;90.66;152809.73;1703357;84;21031;-59
2022/06/02 02:14:55;;;;;;;13.22;7.60;;;;;;;20.51;90.99;152809.73;1698510;84;21142;-59
2022/06/02 02:17:38;;;;;;;17.25;7.22;;;;;;;20.54;91.02;152817.56;1689898;84;21043;-59
2022/06/02 02:20:30;;;;;;;19.65;7.28;;;;;;;20.52;91.28;152812.34;1690015;84;21019;-59
2022/06/02 02:23:05;;;;;;;13.45;7.05;;;;;;;20.54;91.47;152817.56;1689786;84;21083;-61
2022/06/02 02:25:47;;;;;;;18.57;8.25;;;;;;;20.54;91.67;152817.56;1689594;84;21565;-61
2022/06/02 02:28:33;;;;;;;20.00;8.25;;;;;;;20.56;92.08;152821.50;1689850;84;21873;-59
2022/06/02 02:31:11;;;;;;;19.57;7.65;;;;;;;20.62;92.17;152837.17;1657867;85;21083;-59
2022/06/02 02:34:11;;;;;;;16.37;7.65;;;;;;;20.65;91.72;152843.67;1689963;84;21016;-59
2022/06/02 02:37:05;;;;;;;14.50;7.35;;;;;;;20.64;91.67;152841.06;1658936;84;21052;-59
2022/06/02 02:39:55;;;;;;;15.88;7.75;;;;;;;20.66;91.55;152847.61;1690107;84;21051;-59
2022/06/02 02:42:43;;;;;;;14.30;7.72;;;;;;;20.66;91.56;152846.28;1690043;84;21460;-59
2022/06/02 02:45:38;;;;;;;14.43;7.12;;;;;;;20.65;91.97;152845.00;1668798;84;21445;-60
2022/06/02 02:48:33;;;;;;;18.30;7.87;;;;;;;20.68;92.07;152851.55;1689835;84;28179;-60
2022/06/02 02:51:27;;;;;;;;;;;;;;;20.70;92.32;152858.06;1692372;84;21064;-59
2022/06/02 02:53:58;;;;;;;17.25;7.08;;;;;;;20.72;92.56;152862.00;1690063;84;20177;-59
2022/06/02 02:56:42;;;;;;;13.70;7.12;;;;;;;20.78;92.63;152877.66;1689544;84;21206;-60
2022/06/02 02:59:54;;;;;;;17.70;7.30;;;;;;;20.85;92.37;152894.70;1658918;84;21417;-60
2022/06/02 03:02:35;;;;;;;18.25;7.22;;;;;;;20.89;92.28;152906.48;1689913;84;21055;-60
2022/06/02 03:05:29;;;;;;;17.60;7.45;;;;;;;20.99;92.14;152929.98;1689788;84;21451;-60
2022/06/02 03:08:09;;;;;;;18.40;7.40;;;;;;;21.19;91.01;152980.94;1604373;84;21088;-60
2022/06/02 03:10:38;;;;;;;16.77;7.47;;;;;;;21.19;91.01;152980.94;1709024;84;21420;-60
2022/06/02 03:13:10;;;;;;;14.53;7.25;;;;;;;21.28;90.58;153003.16;1709144;83;21044;-60
2022/06/02 03:15:43;;;;;;;14.58;6.80;;;;;;;21.37;90.26;153026.72;1708881;84;21018;-60
2022/06/02 03:18:50;;;;;;;17.70;7.78;;;;;;;21.47;89.78;153052.83;1708825;83;21104;-61
2022/06/02 03:21:44;;;;;;;19.75;7.45;;;;;;;21.53;89.46;153067.22;1709332;83;21079;-61
2022/06/02 03:24:44;;;;;;;15.88;7.10;;;;;;;21.61;88.89;153086.84;1709109;83;21242;-62
2022/06/02 03:27:37;;;;;;;22.48;7.87;;;;;;;21.65;88.45;153097.34;1708766;84;21576;-61
2022/06/02 03:30:23;;;;;;;21.00;7.55;;;;;;;21.70;88.18;153110.41;1708840;83;21572;-59
2022/06/02 03:33:20;;;;;;;17.52;7.30;;;;;;;21.79;87.60;153132.64;1708893;82;21592;-59
2022/06/02 03:36:13;;;;;;;14.70;6.92;;;;;;;21.87;87.17;153152.25;1708889;84;21061;-62
2022/06/02 03:39:04;;;;;;;18.32;7.05;;;;;;;21.96;86.51;153175.78;1708837;83;21146;-59
2022/06/02 03:42:05;;;;;;;11.83;6.53;;;;;;;21.98;86.30;153181.00;1708705;84;21017;-59
2022/06/02 03:44:53;;;;;;;12.40;6.70;;;;;;;22.08;86.11;153204.56;1708579;84;22097;-59
2022/06/02 03:47:43;;;;;;;13.70;7.08;;;;;;;22.19;85.79;153233.31;1708440;82;21068;-58
2022/06/02 03:50:55;;;;;;;16.80;6.72;;;;;;;22.30;85.30;153260.78;1708642;84;21068;-59
2022/06/02 03:54:04;;;;;;;16.23;7.15;;;;;;;22.44;84.61;153296.14;1709040;83;21194;-58
2022/06/02 03:57:00;;;;;;;17.37;6.75;;;;;;;22.61;83.82;153339.34;1708805;82;21116;-59
2022/06/02 04:00:08;;;;;;;24.25;7.35;;;;;;;22.73;83.11;153369.42;1708766;83;21080;-58
2022/06/02 04:02:55;;;;;;;17.42;7.10;;;;;;;22.85;82.83;153400.80;1708813;83;21590;-58
2022/06/02 04:06:00;;;;;;;18.95;6.35;;;;;;;23.04;82.11;153449.23;1708784;83;20948;-58
2022/06/02 04:08:54;;;;;;;14.85;7.28;;;;;;;23.22;81.33;153492.41;1721194;81;21158;-59
2022/06/02 04:14:48;;;;;;;11.43;6.37;;;;;;;23.61;79.79;153591.94;1769478;79;21106;-59
2022/06/02 04:17:28;;;;;;;13.03;6.62;;;;;;;23.79;78.76;153636.45;1769421;81;21412;-59
2022/06/02 04:20:34;;;;;;;15.68;7.10;;;;;;;23.91;78.45;153666.56;1769448;81;21039;-59
2022/06/02 04:23:28;;;;;;;15.95;6.60;;;;;;;24.12;78.09;153720.25;1769485;81;21210;-59
2022/06/02 04:26:41;;;;;;;14.75;7.08;;;;;;;24.41;76.86;153793.56;1766875;81;21066;-60
2022/06/02 04:29:20;;;;;;;14.05;5.90;;;;;;;24.61;75.55;153845.95;1769430;79;20999;-61
2022/06/02 04:32:12;;;;;;;14.10;7.03;;;;;;;24.81;74.13;153895.78;1735423;82;21151;-59
2022/06/02 04:35:11;;;;;;;15.65;7.25;;;;;;;25.00;73.13;153942.95;1703165;84;21043;-61
2022/06/02 04:38:03;;;;;;;15.83;6.62;;;;;;;25.14;72.16;153979.66;1713403;82;21048;-61
2022/06/02 04:41:07;;;;;;;10.75;6.30;;;;;;;25.21;71.63;153995.36;1734896;82;21052;-60
2022/06/02 04:43:44;;;;;;;17.62;6.40;;;;;;;25.34;70.82;154029.44;1735450;82;20996;-61
2022/06/02 04:46:31;;;;;;;14.50;6.53;;;;;;;25.46;70.31;154059.58;1735492;82;21604;-60
2022/06/02 04:49:19;;;;;;;17.17;6.80;;;;;;;25.58;69.78;154091.05;1735619;82;21019;-60
2022/06/02 04:52:05;;;;;;;16.80;6.25;;;;;;;25.69;68.87;154118.56;1732075;82;21262;-61
2022/06/02 04:55:09;;;;;;;17.25;6.72;;;;;;;25.77;68.40;154136.95;1735999;82;21005;-61
2022/06/02 04:58:00;;;;;;;14.85;6.40;;;;;;;25.85;68.16;154157.91;1735943;82;21177;-62
2022/06/02 05:00:56;;;;;;;14.07;6.40;;;;;;;25.99;67.56;154194.61;1735997;82;21107;-60
2022/06/02 05:03:56;;;;;;;16.93;6.85;;;;;;;26.12;66.93;154226.05;1735833;82;21035;-60
2022/06/02 05:06:45;;;;;;;13.83;5.33;;;;;;;26.16;66.32;154236.52;1735431;82;21149;-60
2022/06/02 05:09:39;;;;;;;13.55;6.40;;;;;;;26.21;66.13;154249.72;1725487;82;20974;-62
2022/06/02 05:12:36;;;;;;;14.47;6.03;;;;;;;26.26;65.77;154261.48;1715616;83;21022;-62
2022/06/02 05:15:24;;;;;;;12.30;5.65;;;;;;;26.28;65.56;154266.72;1714366;83;21096;-59
2022/06/02 05:18:06;;;;;;;12.85;5.67;;;;;;;26.31;65.53;154275.91;1710221;83;21060;-60
2022/06/02 05:20:59;;;;;;;14.20;5.85;;;;;;;26.38;65.44;154292.97;1699488;84;21226;-60
2022/06/02 05:24:11;;;;;;;13.80;6.05;;;;;;;26.48;65.00;154316.55;1710232;82;21048;-59
2022/06/02 05:27:03;;;;;;;11.43;5.65;;;;;;;26.58;64.58;154342.78;1710280;83;21260;-59
2022/06/02 05:30:04;;;;;;;11.88;5.85;;;;;;;26.72;63.64;154378.19;1710360;83;21525;-60
2022/06/02 05:32:44;;;;;;;15.30;6.03;;;;;;;26.80;62.77;154399.16;1657383;83;21076;-60
2022/06/02 05:35:40;;;;;;;13.18;6.45;;;;;;;26.86;62.92;154413.64;1718486;82;22259;-61
2022/06/02 05:38:37;;;;;;;12.88;5.92;;;;;;;26.99;62.84;154447.75;1693347;82;21080;-60
2022/06/02 05:41:25;;;;;;;12.40;6.15;;;;;;;27.11;62.07;154477.91;1689826;83;21017;-61
2022/06/02 05:44:07;;;;;;;17.80;5.92;;;;;;;27.17;61.56;154492.31;1722037;83;21092;-60
2022/06/02 05:47:27;;;;;;;16.95;5.78;;;;;;;27.27;61.30;154517.23;1721710;83;21068;-61
2022/06/02 05:50:30;;;;;;;14.78;5.58;;;;;;;27.36;60.98;154539.53;1689466;84;21636;-60
2022/06/02 05:53:24;;;;;;;12.95;5.85;;;;;;;27.43;60.63;154557.94;1721601;83;20989;-61
2022/06/02 05:56:34;;;;;;;15.68;5.80;;;;;;;27.51;60.57;154578.95;1721454;82;20988;-61
2022/06/02 05:59:41;;;;;;;16.80;5.87;;;;;;;27.61;60.18;154603.88;1721435;83;21104;-62
2022/06/02 06:02:30;;;;;;;15.25;5.85;;;;;;;27.77;59.60;154643.25;1708023;83;21042;-62
2022/06/02 06:05:24;;;;;;;15.28;6.20;;;;;;;27.90;58.66;154677.34;1709588;82;21990;-62
2022/06/02 06:08:32;;;;;;;8.75;5.20;;;;;;;27.93;58.47;154685.20;1689182;84;21589;-61
2022/06/02 06:11:41;;;;;;;12.63;5.15;;;;;;;28.00;58.31;154702.28;1724021;82;21016;-60
2022/06/02 06:14:28;;;;;;;12.88;6.22;;;;;;;28.11;58.13;154729.83;1705734;83;21055;-61
2022/06/02 06:17:07;;;;;;;10.72;5.58;;;;;;;28.22;57.83;154758.78;1723277;81;21004;-60
2022/06/02 06:20:02;;;;;;;13.83;5.87;;;;;;;28.27;57.32;154770.55;1725554;82;21134;-60
2022/06/02 06:22:37;;;;;;;16.65;6.33;;;;;;;28.31;57.03;154782.37;1737365;81;21465;-61
2022/06/02 06:25:31;;;;;;;17.23;6.40;;;;;;;28.38;56.92;154799.44;1737833;81;21169;-61
2022/06/02 06:28:16;;;;;;;15.45;6.47;;;;;;;28.47;56.48;154821.77;1724404;83;20988;-61
2022/06/02 06:31:21;;;;;;;14.63;5.87;;;;;;;28.56;56.52;154845.38;1733488;81;21068;-61
2022/06/02 06:33:55;;;;;;;10.25;5.53;;;;;;;28.59;55.84;154853.23;1740987;81;21481;-61
2022/06/02 06:36:56;;;;;;;11.78;5.90;;;;;;;28.49;56.37;154827.00;1732395;82;21131;-61
2022/06/02 06:39:32;;;;;;;12.28;5.67;;;;;;;28.49;56.39;154825.67;1722935;82;21116;-62
2022/06/02 06:42:23;;;;;;;17.48;5.80;;;;;;;28.47;56.69;154821.77;1731216;82;21077;-61
2022/06/02 06:44:58;;;;;;;15.28;6.10;;;;;;;28.56;56.73;154845.38;1738746;81;21083;-60
2022/06/02 06:47:30;;;;;;;15.15;6.28;;;;;;;28.69;56.24;154878.19;1758431;81;21639;-59
2022/06/02 06:50:05;;;;;;;17.37;5.83;;;;;;;28.80;55.43;154905.80;1723541;79;21053;-59
2022/06/02 06:52:57;;;;;;;10.95;5.65;;;;;;;28.86;55.17;154921.58;1721932;82;21006;-58
2022/06/02 06:55:51;;;;;;;13.10;6.12;;;;;;;28.96;55.03;154946.53;1732429;81;21073;-60
2022/06/02 06:58:38;;;;;;;13.18;6.10;;;;;;;28.99;54.28;154953.06;1718732;82;21033;-61
2022/06/02 07:01:11;;;;;;;13.30;5.60;;;;;;;28.96;54.17;154945.19;1737256;81;21898;-60
2022/06/02 07:04:22;;;;;;;12.75;5.60;;;;;;;28.96;53.87;154945.19;1728137;81;21442;-61
2022/06/02 07:07:09;;;;;;;14.63;6.00;;;;;;;29.07;53.96;154974.11;1763645;81;20926;-60
2022/06/02 07:10:06;;;;;;;15.43;5.70;;;;;;;29.23;53.49;155013.47;1758829;81;21107;-61
2022/06/02 07:13:26;;;;;;;13.13;6.03;;;;;;;29.32;53.21;155037.13;1734515;82;20942;-60
2022/06/02 07:16:14;;;;;;;17.42;5.53;;;;;;;29.43;52.92;155066.03;1748031;80;21134;-61
2022/06/02 07:19:06;;;;;;;17.37;6.45;;;;;;;29.54;52.36;155092.33;1691834;84;21146;-60
2022/06/02 07:21:58;;;;;;;13.35;5.50;;;;;;;29.48;51.85;155077.87;1764347;80;21009;-60
2022/06/02 07:24:58;;;;;;;13.08;5.62;;;;;;;29.40;51.67;155058.11;1740960;81;21468;-60
2022/06/02 07:27:36;;;;;;;12.33;5.42;;;;;;;29.35;51.62;155045.00;1773161;80;21113;-60
2022/06/02 07:30:26;;;;;;;22.07;6.25;;;;;;;29.28;51.62;155026.58;1732316;81;21146;-60
2022/06/02 07:33:26;;;;;;;14.73;5.87;;;;;;;29.25;52.24;155018.70;1749001;81;20969;-62
2022/06/02 07:36:12;;;;;;;17.10;6.55;;;;;;;29.33;52.66;155038.41;1738879;81;21135;-61
2022/06/02 07:39:07;;;;;;;13.53;6.03;;;;;;;29.54;52.13;155092.33;1736004;82;21001;-60
2022/06/02 07:42:14;;;;;;;15.25;5.72;;;;;;;29.66;52.09;155123.81;1756836;80;21009;-62
2022/06/02 07:45:21;;;;;;;15.03;5.87;;;;;;;29.85;51.66;155171.11;1752090;81;21378;-60
2022/06/02 07:48:09;;;;;;;11.75;5.80;;;;;;;29.99;51.09;155207.91;1735980;81;20972;-60
2022/06/02 07:50:47;;;;;;;18.60;6.15;;;;;;;30.10;51.08;155234.20;1735642;82;21557;-62
2022/06/02 07:53:58;;;;;;;11.65;6.40;;;;;;;30.15;51.20;155248.67;1750392;82;21009;-60
2022/06/02 07:56:39;;;;;;;13.13;5.75;;;;;;;30.14;51.33;155244.70;1749028;81;21051;-61
2022/06/02 07:59:23;;;;;;;11.80;5.05;;;;;;;30.20;51.56;155260.50;1741927;81;21261;-61
2022/06/02 08:02:10;;;;;;;15.70;5.70;;;;;;;30.28;51.39;155281.50;1750444;81;21000;-60
2022/06/02 08:05:11;;;;;;;11.75;6.15;;;;;;;30.38;51.07;155305.14;1761419;80;21058;-62
2022/06/02 08:07:54;;;;;;;17.73;6.50;;;;;;;30.43;51.12;155319.59;1742908;80;21019;-61
2022/06/02 08:10:44;;;;;;;19.62;6.42;;;;;;;30.51;51.10;155339.31;1765078;80;21512;-60
2022/06/02 08:13:34;;;;;;;9.80;5.55;;;;;;;30.51;50.94;155339.31;1751242;80;21840;-61
2022/06/02 08:16:12;;;;;;;14.53;6.12;;;;;;;30.48;51.07;155331.44;1741245;81;21064;-62
2022/06/02 08:19:01;;;;;;;13.98;5.62;;;;;;;30.45;51.10;155323.56;1744580;82;21044;-62
2022/06/02 08:21:44;;;;;;;11.97;6.05;;;;;;;30.38;51.42;155305.14;1754202;80;21071;-62
2022/06/02 08:24:35;;;;;;;10.68;5.65;;;;;;;30.37;51.71;155302.50;1725091;82;21071;-60
2022/06/02 08:27:32;;;;;;;12.13;6.87;;;;;;;30.37;51.77;155303.84;1748502;80;21864;-61
2022/06/02 08:30:07;;;;;;;14.55;6.50;;;;;;;30.40;51.74;155311.72;1743502;80;21025;-62
2022/06/02 08:33:18;;;;;;;18.23;6.50;;;;;;;30.41;51.61;155313.06;1747608;80;21091;-61
2022/06/02 08:36:02;;;;;;;13.22;5.70;;;;;;;30.38;51.51;155306.47;1728998;82;21464;-61
2022/06/02 08:38:37;;;;;;;15.88;5.87;;;;;;;30.43;51.51;155318.31;1756251;80;21480;-62
2022/06/02 08:41:31;;;;;;;13.00;5.50;;;;;;;30.32;51.70;155290.72;1764629;80;21285;-62
2022/06/02 08:44:03;;;;;;;18.12;6.45;;;;;;;30.32;52.15;155290.72;1765173;81;21567;-62
2022/06/02 08:46:48;;;;;;;11.10;5.50;;;;;;;30.41;51.80;155314.34;1744611;81;21510;-61
2022/06/02 08:49:49;;;;;;;12.50;6.12;;;;;;;30.46;51.54;155326.19;1746729;82;21001;-61
2022/06/02 08:52:46;;;;;;;11.55;6.08;;;;;;;30.49;51.23;155334.06;1728484;83;21130;-60
2022/06/02 08:55:47;;;;;;;14.40;6.25;;;;;;;30.54;51.17;155345.91;1698436;82;22292;-61
2022/06/02 08:58:54;;;;;;;17.95;6.08;;;;;;;30.59;51.14;155359.03;1730018;80;21119;-62
2022/06/02 09:01:54;;;;;;;15.38;6.92;;;;;;;30.68;50.81;155382.72;1731179;82;21080;-61
2022/06/02 09:05:13;;;;;;;15.98;6.42;;;;;;;30.79;50.53;155410.31;1738758;80;21513;-61
2022/06/02 09:08:18;;;;;;;16.05;5.75;;;;;;;30.78;50.40;155406.39;1736303;82;21496;-61
2022/06/02 09:11:16;;;;;;;16.75;5.65;;;;;;;30.79;50.37;155410.31;1742986;81;21202;-61
2022/06/02 14:06:21;;;;;;;14.38;5.08;;;;;;;29.73;47.48;155142.25;1727585;83;21024;-60
2022/06/02 14:09:17;;;;;;;13.95;4.40;;;;;;;29.78;46.59;155152.73;1727369;83;21052;-60
2022/06/02 14:12:04;;;;;;;13.93;4.75;;;;;;;29.75;46.09;155144.86;1709500;83;21098;-61
2022/06/02 14:14:52;;;;;;;14.75;4.45;;;;;;;29.69;45.78;155131.69;1694666;83;21466;-61
2022/06/02 14:17:46;;;;;;;15.32;4.87;;;;;;;29.73;45.43;155140.91;1727445;83;21001;-61
2022/06/02 14:20:33;;;;;;;26.12;5.60;;;;;;;29.77;45.12;155150.11;1727421;83;21128;-61
2022/06/02 14:23:20;;;;;;;12.50;4.62;;;;;;;29.83;44.45;155165.86;1726969;83;21087;-60
2022/06/02 14:26:21;;;;;;;15.18;5.12;;;;;;;29.83;44.05;155165.86;1726827;83;21405;-61
2022/06/02 14:28:57;;;;;;;17.60;5.78;;;;;;;29.84;44.08;155169.83;1726826;83;21044;-60
2022/06/02 14:31:48;;;;;;;16.40;5.05;;;;;;;29.88;44.23;155178.98;1726435;83;20993;-60
2022/06/02 14:34:32;;;;;;;12.82;5.12;;;;;;;29.88;44.33;155180.33;1725639;83;21243;-61
2022/06/02 14:37:10;;;;;;;18.32;5.33;;;;;;;29.94;44.26;155193.44;1726006;81;21548;-61
2022/06/02 14:40:05;;;;;;;10.58;4.75;;;;;;;29.95;44.06;155196.06;1726775;81;21027;-61
2022/06/02 14:43:03;;;;;;;13.28;5.12;;;;;;;29.94;43.86;155193.44;1708393;83;21494;-61
2022/06/02 14:46:09;;;;;;;16.62;4.80;;;;;;;29.87;44.65;155177.69;1744758;81;21107;-63
2022/06/02 14:48:51;;;;;;;20.55;4.92;;;;;;;29.83;44.70;155165.86;1698024;84;21151;-60
2022/06/02 14:51:35;;;;;;;12.07;5.92;;;;;;;29.77;44.18;155150.11;1696938;84;21042;-60
2022/06/02 14:54:37;;;;;;;15.05;4.87;;;;;;;29.72;44.43;155139.56;1660706;83;21074;-61
2022/06/02 14:58:00;;;;;;;17.40;5.53;;;;;;;29.71;44.64;155136.94;1706478;83;21101;-62
2022/06/02 15:00:49;;;;;;;19.00;5.35;;;;;;;29.68;44.42;155129.06;1719649;82;21062;-63
2022/06/02 15:04:01;;;;;;;15.45;5.45;;;;;;;29.64;43.64;155118.56;1715119;83;21155;-62
2022/06/02 15:06:42;;;;;;;16.82;6.20;;;;;;;29.63;43.36;155115.95;1716084;82;21143;-61
2022/06/02 15:09:31;;;;;;;18.25;6.00;;;;;;;29.60;43.39;155108.08;1716708;82;21064;-62
2022/06/02 15:12:36;;;;;;;11.55;5.08;;;;;;;29.62;43.88;155111.98;1770765;79;20987;-62
2022/06/02 15:15:37;;;;;;;12.55;5.22;;;;;;;29.58;44.09;155102.83;1718305;82;21013;-62
2022/06/02 15:18:49;;;;;;;15.40;6.30;;;;;;;29.47;44.69;155073.91;1720205;82;21527;-61
2022/06/02 15:21:58;;;;;;;19.48;5.90;;;;;;;29.38;45.21;155052.88;1716799;82;21072;-61
2022/06/02 15:25:02;;;;;;;18.17;6.55;;;;;;;29.29;45.31;155030.53;1732329;82;21076;-60
2022/06/02 15:28:07;;;;;;;15.67;6.33;;;;;;;29.23;45.36;155014.80;1700177;82;21025;-61
2022/06/02 15:30:58;;;;;;;22.98;6.47;;;;;;;29.23;45.43;155014.80;1699263;82;21076;-61
2022/06/02 15:34:10;;;;;;;14.70;6.25;;;;;;;29.21;45.72;155008.22;1733492;82;22195;-61
2022/06/02 15:36:52;;;;;;;19.87;6.45;;;;;;;29.22;45.53;155010.84;1734088;81;21458;-61
2022/06/02 15:40:03;;;;;;;22.85;6.85;;;;;;;29.22;45.23;155010.84;1693493;84;21075;-61
2022/06/02 15:43:01;;;;;;;14.50;7.42;;;;;;;29.21;45.21;155008.22;1714281;82;20988;-61
2022/06/02 15:46:22;;;;;;;22.25;7.28;;;;;;;29.18;44.87;155000.34;1731320;82;21091;-61
2022/06/02 15:49:29;;;;;;;20.60;6.80;;;;;;;29.14;44.82;154992.47;1733880;82;21867;-62
2022/06/02 15:52:24;;;;;;;18.35;5.92;;;;;;;29.15;45.49;154995.09;1711612;82;21107;-62
2022/06/02 15:55:30;;;;;;;19.05;5.83;;;;;;;29.21;46.67;155009.55;1683426;84;21938;-62
2022/06/02 15:58:44;;;;;;;16.12;5.03;;;;;;;29.24;47.38;155016.08;1683109;85;20997;-61
2022/06/02 16:01:50;;;;;;;19.02;5.67;;;;;;;29.25;47.70;155018.70;1604765;85;21149;-61
2022/06/02 16:05:04;;;;;;;17.40;5.47;;;;;;;29.14;47.91;154991.12;1683791;85;21290;-61
2022/06/02 16:08:11;;;;;;;14.93;4.85;;;;;;;29.00;48.34;154955.69;1683775;83;21530;-62
2022/06/02 16:11:28;;;;;;;16.17;4.97;;;;;;;28.94;48.68;154939.95;1674723;85;20953;-60
2022/06/02 16:14:12;;;;;;;17.85;5.10;;;;;;;28.84;49.13;154916.28;1675110;85;21032;-62
2022/06/02 16:17:21;;;;;;;17.67;5.30;;;;;;;28.73;49.69;154887.39;1685393;85;21039;-60
2022/06/02 16:19:57;;;;;;;12.80;5.40;;;;;;;28.66;50.04;154870.31;1685497;84;21446;-61
2022/06/02 16:22:38;;;;;;;18.25;5.35;;;;;;;28.55;50.53;154842.75;1685252;84;21054;-61
2022/06/02 16:25:37;;;;;;;15.83;5.75;;;;;;;28.44;50.84;154815.19;1685029;84;21085;-61
2022/06/02 16:28:22;;;;;;;12.25;4.80;;;;;;;28.35;51.28;154790.25;1685165;84;21006;-61
2022/06/02 16:31:03;;;;;;;16.32;5.20;;;;;;;28.28;51.69;154774.50;1685596;84;21030;-61
2022/06/02 16:33:42;;;;;;;17.65;5.40;;;;;;;28.20;52.13;154753.53;1685399;85;21354;-61
2022/06/02 16:36:56;;;;;;;19.65;5.20;;;;;;;28.13;52.39;154736.41;1685381;85;21081;-61
2022/06/02 16:39:44;;;;;;;22.55;5.55;;;;;;;28.11;52.54;154731.16;1685316;85;21442;-60
2022/06/02 16:42:36;;;;;;;22.60;5.25;;;;;;;28.11;52.46;154729.83;1685534;83;20997;-61
2022/06/02 16:45:30;;;;;;;13.28;5.20;;;;;;;28.07;52.55;154719.34;1685325;85;21581;-61
2022/06/02 16:48:28;;;;;;;19.90;5.20;;;;;;;28.01;52.82;154704.89;1685577;85;22476;-61
2022/06/02 16:51:25;;;;;;;15.80;5.50;;;;;;;27.97;53.22;154695.75;1657956;85;21041;-61
2022/06/02 16:54:29;;;;;;;19.35;6.35;;;;;;;28.00;53.15;154703.61;1706330;83;21049;-61
2022/06/02 16:57:10;;;;;;;18.62;6.00;;;;;;;28.02;52.92;154708.84;1683872;83;21529;-63
2022/06/02 17:00:14;;;;;;;19.23;6.28;;;;;;;28.03;52.90;154710.14;1686936;84;21092;-61
2022/06/02 17:03:05;;;;;;;15.45;5.78;;;;;;;27.98;52.61;154698.36;1715755;83;21542;-62
2022/06/02 17:05:41;;;;;;;20.08;6.08;;;;;;;27.93;52.72;154683.92;1715999;83;21554;-61
2022/06/02 17:08:29;;;;;;;17.30;5.87;;;;;;;27.94;52.48;154687.83;1718392;82;22044;-61
2022/06/02 17:11:17;;;;;;;17.82;6.92;;;;;;;27.95;52.18;154690.44;1715925;83;21037;-62
2022/06/02 17:14:02;;;;;;;15.63;5.53;;;;;;;27.94;52.05;154687.83;1715749;83;20998;-61
2022/06/02 17:16:46;;;;;;;18.27;6.40;;;;;;;27.92;51.97;154682.59;1715572;83;21289;-62
2022/06/02 17:19:43;;;;;;;17.10;6.50;;;;;;;27.90;52.08;154677.34;1693290;83;20969;-60
2022/06/02 17:23:08;;;;;;;15.53;5.47;;;;;;;27.88;52.85;154672.09;1746031;82;22248;-61
2022/06/02 17:26:07;;;;;;;16.48;5.90;;;;;;;27.81;53.85;154653.75;1653072;86;21105;-59
2022/06/02 17:28:59;;;;;;;11.80;5.15;;;;;;;27.69;55.07;154624.86;1635167;86;21032;-60
2022/06/02 17:31:46;;;;;;;16.32;5.72;;;;;;;27.56;55.58;154592.06;1699348;82;21173;-60
2022/06/02 17:34:37;;;;;;;16.32;5.80;;;;;;;27.48;55.92;154571.03;1746102;82;21461;-61
2022/06/02 17:37:41;;;;;;;17.52;6.08;;;;;;;27.38;56.10;154546.11;1680564;82;21093;-61
2022/06/02 17:40:31;;;;;;;20.12;6.05;;;;;;;27.28;56.29;154519.86;1745988;82;21111;-60
2022/06/02 17:43:09;;;;;;;16.52;6.15;;;;;;;27.25;56.42;154511.98;1715501;83;21113;-61
2022/06/02 17:46:06;;;;;;;17.73;6.37;;;;;;;27.22;56.58;154505.47;1715236;83;21040;-61
2022/06/02 17:48:41;;;;;;;20.77;6.55;;;;;;;27.14;56.86;154485.78;1682186;82;21056;-61
2022/06/02 17:51:25;;;;;;;24.65;6.15;;;;;;;27.08;57.20;154468.72;1715885;83;21029;-61
2022/06/02 17:54:18;;;;;;;19.35;6.37;;;;;;;27.04;57.38;154459.52;1741798;81;21490;-60
2022/06/02 17:57:03;;;;;;;19.30;5.90;;;;;;;26.95;57.57;154435.94;1693792;83;21077;-60
2022/06/02 17:59:47;;;;;;;13.40;5.90;;;;;;;26.84;58.06;154409.64;1685606;85;21273;-60
2022/06/02 18:02:28;;;;;;;22.00;7.92;;;;;;;26.77;58.32;154390.00;1703818;84;21064;-61
2022/06/02 18:05:14;;;;;;;20.30;6.42;;;;;;;26.68;58.74;154367.70;1703123;84;21056;-61
2022/06/02 18:08:25;;;;;;;21.00;6.53;;;;;;;26.58;58.94;154344.08;1714119;83;21049;-60
2022/06/02 18:11:32;;;;;;;22.10;6.97;;;;;;;26.49;59.12;154320.50;1703200;84;21070;-60